Time;durP1;ratioP1;P1;durP2;ratioP2;P2;SDS_P1;SDS_P2;PMS_P1;PMS_P2;Temp;Humidity;BMP_temperature;BMP_pressure;BME280_temperature;BME280_humidity;BME280_pressure;Samples;Min_cycle;Max_cycle;Signal;HPM_P1;HPM_P2
2021/04/23 00:00:45;;;;;;;5.85;1.50;;;10.30;61.00;;;;;;4852586;29;20076;-61
2021/04/23 00:03:20;;;;;;;5.25;1.50;;;10.40;61.20;;;;;;4850108;29;20050;-61
2021/04/23 00:05:48;;;;;;;5.68;1.88;;;10.40;61.90;;;;;;4852124;29;20381;-61
2021/04/23 00:08:17;;;;;;;8.48;2.35;;;10.30;62.50;;;;;;4857091;29;20073;-61
2021/04/23 00:10:44;;;;;;;6.82;1.58;;;10.20;63.10;;;;;;4860770;29;20375;-61
2021/04/23 00:13:12;;;;;;;8.07;1.65;;;10.20;63.50;;;;;;4855478;29;20557;-61
2021/04/23 00:15:39;;;;;;;4.68;1.02;;;10.10;63.40;;;;;;4848295;29;20109;-61
2021/04/23 00:18:06;;;;;;;6.47;1.50;;;10.00;64.30;;;;;;4837781;29;20046;-61
2021/04/23 00:20:33;;;;;;;5.07;1.40;;;10.10;64.90;;;;;;4836938;29;20524;-61
2021/04/23 00:23:03;;;;;;;5.78;1.52;;;9.90;65.40;;;;;;4854913;29;20076;-61
2021/04/23 00:25:30;;;;;;;4.25;1.10;;;9.80;65.10;;;;;;4836467;29;20060;-61
2021/04/23 00:28:02;;;;;;;5.70;1.55;;;9.80;65.90;;;;;;4855358;29;20563;-61
2021/04/23 00:30:43;;;;;;;3.55;1.20;;;9.80;65.70;;;;;;4838224;29;20114;-61
2021/04/23 00:33:11;;;;;;;4.88;1.25;;;9.80;65.60;;;;;;4848808;29;20106;-61
2021/04/23 00:35:43;;;;;;;5.32;1.80;;;9.90;65.40;;;;;;4854954;29;20049;-61
2021/04/23 00:38:14;;;;;;;5.63;1.08;;;9.90;65.20;;;;;;4861051;29;20113;-61
2021/04/23 00:40:48;;;;;;;6.20;1.23;;;9.80;65.10;;;;;;4858414;29;20522;-61
2021/04/23 00:43:20;;;;;;;4.72;1.55;;;9.80;65.50;;;;;;4850526;29;20050;-60
2021/04/23 00:45:49;;;;;;;7.75;1.63;;;9.60;66.10;;;;;;4853809;29;20453;-61
2021/04/23 00:48:16;;;;;;;3.88;1.65;;;9.50;66.50;;;;;;4855385;29;20073;-61
2021/04/23 00:50:56;;;;;;;4.32;1.23;;;9.50;66.50;;;;;;4855449;29;20049;-61
2021/04/23 00:53:30;;;;;;;6.25;1.73;;;9.50;66.80;;;;;;4836554;29;20137;-61
2021/04/23 00:56:01;;;;;;;6.30;1.95;;;9.50;66.60;;;;;;4853537;29;20041;-60
2021/04/23 00:58:29;;;;;;;7.13;2.30;;;9.50;66.60;;;;;;4853324;29;20050;-60
2021/04/23 01:01:01;;;;;;;4.00;1.58;;;9.60;67.10;;;;;;4847866;29;20528;-60
2021/04/23 01:03:29;;;;;;;4.75;1.40;;;9.60;66.70;;;;;;4828641;29;20061;-60
2021/04/23 01:05:56;;;;;;;7.45;1.42;;;9.70;65.90;;;;;;4842843;29;20045;-60
2021/04/23 01:08:25;;;;;;;5.82;1.40;;;9.70;66.00;;;;;;4839458;29;20060;-60
2021/04/23 01:11:03;;;;;;;5.85;1.42;;;9.60;66.10;;;;;;4843044;29;20450;-60
2021/04/23 01:13:33;;;;;;;6.20;1.38;;;9.60;66.90;;;;;;4841217;29;20049;-60
2021/04/23 01:16:05;;;;;;;4.30;1.63;;;9.40;67.20;;;;;;4831791;29;20044;-60
2021/04/23 01:18:33;;;;;;;10.05;2.17;;;9.40;67.80;;;;;;4841179;29;20046;-60
2021/04/23 01:21:08;;;;;;;3.65;1.60;;;9.30;68.40;;;;;;4856308;29;20751;-60
2021/04/23 01:23:37;;;;;;;6.45;1.85;;;9.10;69.10;;;;;;4861441;29;20053;-60
2021/04/23 01:26:07;;;;;;;4.50;1.50;;;9.30;67.50;;;;;;4862998;29;20045;-60
2021/04/23 01:28:34;;;;;;;2.90;0.88;;;9.20;66.30;;;;;;4851543;29;20049;-61
2021/04/23 01:31:03;;;;;;;7.28;1.65;;;9.20;65.50;;;;;;4851508;29;20044;-61
2021/04/23 01:33:30;;;;;;;7.07;1.73;;;9.20;65.00;;;;;;4844182;29;20139;-60
2021/04/23 01:35:57;;;;;;;4.18;1.23;;;9.10;63.70;;;;;;4832145;29;20050;-60
2021/04/23 01:38:24;;;;;;;4.05;1.25;;;9.20;62.90;;;;;;4853119;29;20099;-60
2021/04/23 01:40:51;;;;;;;5.82;1.45;;;9.10;63.80;;;;;;4855022;29;20049;-60
2021/04/23 01:43:18;;;;;;;4.88;1.27;;;9.10;63.20;;;;;;4851780;29;20054;-61
2021/04/23 01:45:46;;;;;;;5.13;1.30;;;8.90;62.90;;;;;;4856680;29;20055;-61
2021/04/23 01:48:15;;;;;;;4.57;1.02;;;9.00;63.10;;;;;;4858277;29;20527;-60
2021/04/23 01:50:42;;;;;;;6.07;1.27;;;8.80;62.70;;;;;;4843255;29;20056;-60
2021/04/23 01:53:09;;;;;;;5.18;1.15;;;8.80;63.60;;;;;;4845363;29;20050;-60
2021/04/23 01:55:37;;;;;;;6.65;1.27;;;8.80;63.70;;;;;;4858652;29;20041;-60
2021/04/23 01:58:04;;;;;;;3.55;1.17;;;8.60;63.90;;;;;;4857649;29;20466;-60
2021/04/23 02:00:38;;;;;;;8.55;1.55;;;8.40;64.80;;;;;;4833076;29;20049;-61
2021/04/23 02:03:08;;;;;;;3.78;1.30;;;8.30;65.80;;;;;;4849709;29;20054;-60
2021/04/23 02:05:36;;;;;;;4.88;1.20;;;8.40;66.30;;;;;;4851129;29;20078;-61
2021/04/23 02:08:04;;;;;;;8.45;1.77;;;8.20;67.00;;;;;;4838626;29;20565;-60
2021/04/23 02:10:36;;;;;;;5.05;1.50;;;8.10;66.80;;;;;;4871997;29;20050;-60
2021/04/23 02:13:03;;;;;;;4.85;1.25;;;8.10;67.30;;;;;;4856784;29;20183;-60
2021/04/23 02:15:31;;;;;;;5.03;1.50;;;8.00;67.80;;;;;;4855646;29;20038;-60
2021/04/23 02:17:59;;;;;;;4.72;1.98;;;7.90;68.00;;;;;;4849015;29;20045;-60
2021/04/23 02:20:29;;;;;;;5.90;1.55;;;7.90;67.90;;;;;;4852156;29;20819;-60
2021/04/23 02:23:01;;;;;;;11.88;2.20;;;7.90;68.70;;;;;;4854081;29;20148;-60
2021/04/23 02:25:30;;;;;;;7.82;2.03;;;7.90;69.10;;;;;;4834454;29;20095;-60
2021/04/23 02:27:57;;;;;;;5.03;1.35;;;7.90;68.90;;;;;;4847815;29;20049;-60
2021/04/23 02:30:30;;;;;;;6.05;1.40;;;7.90;68.20;;;;;;4843413;29;20049;-60
2021/04/23 02:32:58;;;;;;;6.72;1.92;;;7.90;68.40;;;;;;4835630;29;20049;-61
2021/04/23 02:35:25;;;;;;;4.68;1.27;;;7.80;68.80;;;;;;4857564;29;20046;-60
2021/04/23 02:37:53;;;;;;;5.95;1.92;;;7.90;68.60;;;;;;4856686;29;20045;-61
2021/04/23 02:40:24;;;;;;;4.72;1.20;;;8.10;68.70;;;;;;4838592;29;20056;-60
2021/04/23 02:42:55;;;;;;;5.28;1.20;;;7.90;68.60;;;;;;4854777;29;20051;-60
2021/04/23 02:45:25;;;;;;;8.13;1.48;;;8.00;69.20;;;;;;4853743;29;20041;-61
2021/04/23 02:47:53;;;;;;;5.03;1.35;;;8.00;69.10;;;;;;4857207;29;20054;-61
2021/04/23 02:50:22;;;;;;;4.90;1.73;;;8.00;68.80;;;;;;4839633;29;20054;-61
2021/04/23 02:52:49;;;;;;;7.88;1.52;;;7.90;69.10;;;;;;4856853;29;20125;-60
2021/04/23 02:55:18;;;;;;;4.90;1.25;;;7.90;69.00;;;;;;4853166;29;20041;-60
2021/04/23 02:58:01;;;;;;;8.23;1.42;;;7.90;68.50;;;;;;4844907;29;20049;-60
2021/04/23 03:00:31;;;;;;;6.15;1.63;;;7.70;69.20;;;;;;4851452;29;20047;-60
2021/04/23 03:02:58;;;;;;;5.35;1.90;;;7.80;68.70;;;;;;4841258;29;20467;-60
2021/04/23 03:05:26;;;;;;;4.72;1.70;;;7.80;69.40;;;;;;4840111;29;20045;-60
2021/04/23 03:07:55;;;;;;;6.25;1.58;;;7.80;69.30;;;;;;4850877;29;20042;-60
2021/04/23 03:10:24;;;;;;;4.60;1.77;;;7.80;69.60;;;;;;4840022;29;20477;-60
2021/04/23 03:12:52;;;;;;;6.05;1.60;;;7.70;70.40;;;;;;4863419;29;20053;-60
2021/04/23 03:15:21;;;;;;;6.38;1.60;;;7.70;70.10;;;;;;4843420;29;20056;-61
2021/04/23 03:17:49;;;;;;;6.07;1.90;;;7.70;71.10;;;;;;4837797;29;20042;-60
2021/04/23 03:20:18;;;;;;;5.63;1.70;;;7.60;71.90;;;;;;4833349;29;20049;-60
2021/04/23 03:22:45;;;;;;;4.00;1.23;;;7.70;70.40;;;;;;4856858;29;20113;-60
2021/04/23 03:25:13;;;;;;;6.10;1.77;;;7.60;71.10;;;;;;4833237;29;20058;-60
2021/04/23 03:27:41;;;;;;;9.77;2.28;;;7.50;71.00;;;;;;4830978;29;20045;-60
2021/04/23 03:30:15;;;;;;;5.55;1.70;;;7.50;71.30;;;;;;4845272;29;20090;-60
2021/04/23 03:32:42;;;;;;;6.53;1.95;;;7.60;71.80;;;;;;4857881;29;20495;-60
2021/04/23 03:35:10;;;;;;;4.80;1.45;;;7.40;72.10;;;;;;4843089;29;20110;-60
2021/04/23 03:37:38;;;;;;;5.78;2.05;;;7.40;72.10;;;;;;4856714;29;20576;-60
2021/04/23 03:40:06;;;;;;;7.32;1.90;;;7.40;72.50;;;;;;4851484;29;20041;-60
2021/04/23 03:42:38;;;;;;;5.50;1.45;;;7.40;72.70;;;;;;4852309;29;20034;-60
2021/04/23 03:45:07;;;;;;;5.40;1.70;;;7.40;73.90;;;;;;4852958;29;20443;-60
2021/04/23 03:47:34;;;;;;;9.70;2.05;;;7.30;73.40;;;;;;4839435;29;20618;-60
2021/04/23 03:50:01;;;;;;;4.38;1.52;;;7.30;74.10;;;;;;4841050;29;20049;-60
2021/04/23 03:52:28;;;;;;;7.00;1.67;;;7.40;74.00;;;;;;4847421;29;20508;-60
2021/04/23 03:54:54;;;;;;;5.45;2.00;;;7.40;73.90;;;;;;4843421;29;20049;-60
2021/04/23 03:57:21;;;;;;;9.93;2.17;;;7.40;74.30;;;;;;4859116;29;20052;-60
2021/04/23 03:59:47;;;;;;;4.45;1.77;;;7.60;74.20;;;;;;4843393;29;20048;-60
2021/04/23 04:02:14;;;;;;;8.48;2.15;;;7.70;73.30;;;;;;4852175;29;20042;-60
2021/04/23 04:04:40;;;;;;;5.75;2.00;;;7.70;73.50;;;;;;4860244;29;20045;-60
2021/04/23 04:07:07;;;;;;;5.88;1.73;;;7.70;73.40;;;;;;4852769;29;20069;-60
2021/04/23 04:09:33;;;;;;;6.25;2.00;;;7.70;73.50;;;;;;4857884;29;20062;-60
2021/04/23 04:12:00;;;;;;;4.07;2.00;;;7.60;73.60;;;;;;4852393;29;20057;-61
2021/04/23 04:14:26;;;;;;;4.43;1.95;;;7.50;74.00;;;;;;4842363;29;20045;-60
2021/04/23 04:16:53;;;;;;;7.28;2.30;;;7.50;74.80;;;;;;4849523;29;20049;-60
2021/04/23 04:19:19;;;;;;;5.38;1.85;;;7.50;74.40;;;;;;4855569;29;20057;-60
2021/04/23 04:21:46;;;;;;;9.48;1.90;;;7.50;74.90;;;;;;4847018;29;20056;-60
2021/04/23 04:24:12;;;;;;;7.28;2.80;;;7.40;74.90;;;;;;4852353;29;20109;-60
2021/04/23 04:26:39;;;;;;;11.15;3.22;;;7.40;74.60;;;;;;4858180;29;20057;-61
2021/04/23 04:29:06;;;;;;;11.20;3.55;;;7.30;74.60;;;;;;4854915;29;20065;-60
2021/04/23 04:31:32;;;;;;;9.55;3.85;;;7.30;75.10;;;;;;4851063;29;20536;-60
2021/04/23 04:33:59;;;;;;;10.02;3.97;;;7.30;75.20;;;;;;4849546;29;20050;-60
2021/04/23 04:36:25;;;;;;;7.43;3.25;;;7.10;75.20;;;;;;4846713;29;20045;-60
2021/04/23 04:38:52;;;;;;;11.85;3.88;;;7.20;76.10;;;;;;4855678;29;20446;-60
2021/04/23 04:41:18;;;;;;;9.25;4.10;;;7.20;76.30;;;;;;4853733;29;20065;-60
2021/04/23 04:43:45;;;;;;;10.30;5.05;;;7.30;76.60;;;;;;4860108;29;20049;-60
2021/04/23 04:46:12;;;;;;;9.07;3.65;;;7.30;75.80;;;;;;4858324;29;20053;-60
2021/04/23 04:48:39;;;;;;;8.02;3.38;;;7.40;75.40;;;;;;4858841;29;20454;-60
2021/04/23 04:51:07;;;;;;;6.40;3.08;;;7.60;75.20;;;;;;4839383;29;20086;-60
2021/04/23 04:53:33;;;;;;;14.13;4.05;;;7.70;75.00;;;;;;4852258;29;20493;-60
2021/04/23 04:56:00;;;;;;;8.20;3.10;;;7.70;75.60;;;;;;4851828;29;20542;-60
2021/04/23 04:58:31;;;;;;;6.57;3.22;;;7.70;74.80;;;;;;4856853;29;20042;-60
2021/04/23 05:01:00;;;;;;;8.70;3.15;;;7.80;75.00;;;;;;4855804;29;20045;-60
2021/04/23 05:03:27;;;;;;;9.77;4.03;;;7.80;75.00;;;;;;4856786;29;20126;-60
2021/04/23 05:05:54;;;;;;;8.55;3.40;;;7.90;74.40;;;;;;4859603;29;20045;-60
2021/04/23 05:08:21;;;;;;;5.15;2.30;;;8.00;76.10;;;;;;4835732;29;20061;-60
2021/04/23 05:10:47;;;;;;;9.73;2.70;;;8.10;73.80;;;;;;4851418;29;20041;-60
2021/04/23 05:13:14;;;;;;;6.20;2.25;;;8.20;73.00;;;;;;4859436;29;20052;-60
2021/04/23 05:15:41;;;;;;;7.72;2.47;;;8.20;72.10;;;;;;4858910;29;20037;-60
2021/04/23 05:18:08;;;;;;;5.32;2.25;;;8.40;72.70;;;;;;4842020;29;20478;-60
2021/04/23 05:20:35;;;;;;;6.05;2.60;;;8.50;71.50;;;;;;4835035;29;20046;-60
2021/04/23 05:23:03;;;;;;;7.60;2.38;;;8.50;71.20;;;;;;4851911;29;20529;-60
2021/04/23 05:25:31;;;;;;;8.85;2.55;;;8.50;71.40;;;;;;4839661;29;20065;-61
2021/04/23 05:27:57;;;;;;;4.65;2.03;;;8.70;69.60;;;;;;4828134;29;20050;-60
2021/04/23 05:30:28;;;;;;;6.30;2.25;;;8.70;70.20;;;;;;4847959;29;20058;-60
2021/04/23 05:32:56;;;;;;;8.05;2.80;;;8.70;69.60;;;;;;4850448;29;20049;-60
2021/04/23 05:35:26;;;;;;;7.53;2.47;;;8.80;70.30;;;;;;4844553;29;20502;-60
2021/04/23 05:37:53;;;;;;;7.25;2.40;;;8.90;69.70;;;;;;4856013;29;20042;-60
2021/04/23 05:40:31;;;;;;;5.15;1.80;;;8.90;69.60;;;;;;4852375;29;20049;-60
2021/04/23 05:42:58;;;;;;;8.07;2.20;;;8.80;67.90;;;;;;4861261;29;20045;-60
2021/04/23 05:45:25;;;;;;;8.65;2.40;;;9.00;68.00;;;;;;4846970;29;20100;-61
2021/04/23 05:47:52;;;;;;;5.75;2.22;;;9.00;68.10;;;;;;4859452;29;20042;-60
2021/04/23 05:50:20;;;;;;;7.00;2.08;;;9.10;68.00;;;;;;4849457;29;20148;-61
2021/04/23 05:52:47;;;;;;;6.60;1.88;;;9.20;67.60;;;;;;4852324;29;20055;-60
2021/04/23 05:55:15;;;;;;;7.95;1.85;;;9.30;66.60;;;;;;4849804;29;20045;-60
2021/04/23 05:57:42;;;;;;;9.35;2.15;;;9.30;66.20;;;;;;4842070;29;20062;-60
2021/04/23 06:00:12;;;;;;;10.30;1.95;;;9.40;66.30;;;;;;4843524;29;20610;-60
2021/04/23 06:02:40;;;;;;;8.35;1.85;;;9.50;66.00;;;;;;4847253;29;20076;-61
2021/04/23 06:05:08;;;;;;;5.15;1.95;;;9.50;64.50;;;;;;4841340;29;20442;-62
2021/04/23 06:07:35;;;;;;;6.90;1.90;;;9.60;64.80;;;;;;4852792;29;20049;-62
2021/04/23 06:10:05;;;;;;;6.13;1.35;;;9.60;63.70;;;;;;4850635;29;20086;-62
2021/04/23 06:12:32;;;;;;;6.90;1.30;;;9.80;62.20;;;;;;4853377;29;20038;-62
2021/04/23 06:14:59;;;;;;;3.83;1.10;;;9.80;62.20;;;;;;4853868;29;20375;-62
2021/04/23 06:17:26;;;;;;;9.23;1.60;;;9.80;61.70;;;;;;4845117;29;20052;-62
2021/04/23 06:19:52;;;;;;;5.70;1.55;;;9.90;62.90;;;;;;4845275;29;20094;-62
2021/04/23 06:22:20;;;;;;;6.55;1.50;;;10.00;63.10;;;;;;4857009;29;20050;-62
2021/04/23 06:24:46;;;;;;;5.70;1.40;;;10.10;62.90;;;;;;4852173;29;20045;-62
2021/04/23 06:27:12;;;;;;;5.47;1.40;;;10.10;62.20;;;;;;4851213;29;20050;-62
2021/04/23 06:29:39;;;;;;;4.35;1.90;;;10.20;61.80;;;;;;4853128;29;20050;-62
2021/04/23 06:32:06;;;;;;;6.80;1.30;;;10.20;61.90;;;;;;4851450;29;20049;-62
2021/04/23 06:34:33;;;;;;;7.93;1.42;;;10.20;61.60;;;;;;4837461;29;20427;-62
2021/04/23 06:36:59;;;;;;;4.55;1.15;;;10.30;61.70;;;;;;4855078;29;20561;-61
2021/04/23 06:39:26;;;;;;;4.13;1.50;;;10.20;61.00;;;;;;4856839;29;20549;-62
2021/04/23 06:41:53;;;;;;;9.23;1.55;;;10.20;61.10;;;;;;4846637;29;20114;-62
2021/04/23 06:44:20;;;;;;;6.47;1.85;;;10.20;61.60;;;;;;4835491;29;20049;-62
2021/04/23 06:46:47;;;;;;;6.53;1.50;;;10.40;62.80;;;;;;4847248;29;20792;-61
2021/04/23 06:49:14;;;;;;;4.15;1.00;;;10.40;63.20;;;;;;4844373;29;20152;-62
2021/04/23 06:51:40;;;;;;;7.72;2.17;;;10.50;62.20;;;;;;4834608;29;20053;-62
2021/04/23 06:54:07;;;;;;;5.97;1.30;;;10.50;61.70;;;;;;4856699;29;20103;-62
2021/04/23 06:56:34;;;;;;;7.78;2.08;;;10.50;61.20;;;;;;4847732;29;20490;-62
2021/04/23 06:59:01;;;;;;;7.80;2.40;;;10.50;62.60;;;;;;4845076;29;20113;-62
2021/04/23 07:01:27;;;;;;;4.78;1.35;;;10.60;61.60;;;;;;4851225;29;20042;-62
2021/04/23 07:03:54;;;;;;;4.88;1.42;;;10.60;62.60;;;;;;4854388;29;20091;-62
2021/04/23 07:06:21;;;;;;;7.78;1.75;;;10.60;62.50;;;;;;4853481;29;20053;-62
2021/04/23 07:08:47;;;;;;;6.47;2.45;;;10.60;63.40;;;;;;4831252;29;20058;-62
2021/04/23 07:11:17;;;;;;;6.63;1.40;;;10.70;62.90;;;;;;4855249;29;20088;-62
2021/04/23 07:13:44;;;;;;;5.95;1.33;;;10.70;61.50;;;;;;4852116;29;20041;-62
2021/04/23 07:16:11;;;;;;;7.40;2.05;;;10.70;61.70;;;;;;4846670;29;20425;-62
2021/04/23 07:18:41;;;;;;;8.90;2.10;;;10.90;62.10;;;;;;4840663;29;20073;-62
2021/04/23 07:21:09;;;;;;;4.78;1.60;;;11.00;62.30;;;;;;4841324;29;20049;-62
2021/04/23 07:23:36;;;;;;;5.13;1.48;;;11.00;60.50;;;;;;4837533;29;20050;-62
2021/04/23 07:26:03;;;;;;;9.40;1.02;;;11.10;58.20;;;;;;4849197;29;20394;-62
2021/04/23 07:28:29;;;;;;;5.05;1.25;;;11.20;58.70;;;;;;4834875;29;20064;-62
2021/04/23 07:30:57;;;;;;;4.40;1.15;;;11.30;59.10;;;;;;4828846;29;20042;-62
2021/04/23 07:33:23;;;;;;;4.60;1.00;;;11.30;58.50;;;;;;4852508;29;20035;-62
2021/04/23 07:35:51;;;;;;;6.65;1.25;;;11.40;58.10;;;;;;4858817;29;20049;-62
2021/04/23 07:38:18;;;;;;;7.70;1.42;;;11.50;58.00;;;;;;4841197;29;20064;-62
2021/04/23 07:40:45;;;;;;;4.25;0.85;;;11.60;54.90;;;;;;4852103;29;20054;-62
2021/04/23 07:43:12;;;;;;;4.88;0.88;;;11.60;54.30;;;;;;4841416;29;20057;-62
2021/04/23 07:45:58;;;;;;;3.53;1.13;;;11.60;55.50;;;;;;4856043;29;20124;-62
2021/04/23 07:48:25;;;;;;;6.63;1.00;;;11.70;56.60;;;;;;4844164;29;20049;-62
2021/04/23 07:50:53;;;;;;;3.55;0.73;;;11.80;54.80;;;;;;4849845;29;20105;-62
2021/04/23 07:53:20;;;;;;;8.88;1.00;;;11.80;53.50;;;;;;4819427;29;20056;-62
2021/04/23 07:55:47;;;;;;;3.88;0.57;;;11.80;55.00;;;;;;4847966;29;20048;-62
2021/04/23 07:58:13;;;;;;;3.95;0.70;;;11.90;55.50;;;;;;4831961;29;20046;-62
2021/04/23 08:00:40;;;;;;;3.78;0.90;;;12.00;53.50;;;;;;4847262;29;20049;-62
2021/04/23 08:03:07;;;;;;;4.65;0.70;;;12.00;52.80;;;;;;4849725;29;20041;-62
2021/04/23 08:05:34;;;;;;;7.45;0.80;;;12.10;54.60;;;;;;4843660;29;20046;-62
2021/04/23 08:08:05;;;;;;;4.72;0.80;;;12.10;53.80;;;;;;4849344;29;20118;-62
2021/04/23 08:10:33;;;;;;;4.47;0.68;;;12.20;54.30;;;;;;4849423;29;20056;-62
2021/04/23 08:13:00;;;;;;;4.60;0.77;;;12.20;54.20;;;;;;4830665;29;20038;-62
2021/04/23 08:15:27;;;;;;;2.65;0.65;;;12.30;53.10;;;;;;4847847;29;20046;-62
2021/04/23 08:17:54;;;;;;;5.18;1.00;;;12.30;54.20;;;;;;4850269;29;20070;-62
2021/04/23 08:20:22;;;;;;;4.72;1.17;;;12.40;54.90;;;;;;4857771;29;20048;-62
2021/04/23 08:22:49;;;;;;;5.43;0.98;;;12.50;54.80;;;;;;4842230;29;20558;-62
2021/04/23 08:25:19;;;;;;;6.28;1.35;;;12.50;52.80;;;;;;4854173;29;20049;-62
2021/04/23 08:27:46;;;;;;;4.97;1.40;;;12.50;55.10;;;;;;4856120;29;20105;-62
2021/04/23 08:30:14;;;;;;;3.45;1.00;;;12.50;55.40;;;;;;4849606;29;20054;-62
2021/04/23 08:32:42;;;;;;;2.97;0.75;;;12.60;56.50;;;;;;4857464;29;20046;-62
2021/04/23 08:35:10;;;;;;;2.92;0.70;;;12.70;53.50;;;;;;4833919;29;20037;-62
2021/04/23 08:37:38;;;;;;;4.82;1.48;;;12.60;51.60;;;;;;4872078;29;20086;-62
2021/04/23 08:40:07;;;;;;;5.18;1.13;;;12.80;54.50;;;;;;4849899;29;20101;-62
2021/04/23 08:42:34;;;;;;;3.33;1.15;;;12.80;53.30;;;;;;4847745;29;20049;-62
2021/04/23 08:45:05;;;;;;;5.38;1.27;;;12.80;52.40;;;;;;4829533;29;20102;-62
2021/04/23 08:47:32;;;;;;;4.55;1.00;;;12.90;53.70;;;;;;4851631;29;20060;-62
2021/04/23 08:49:59;;;;;;;3.88;0.73;;;13.00;53.70;;;;;;4857448;29;20057;-62
2021/04/23 08:52:26;;;;;;;4.28;1.30;;;12.90;53.30;;;;;;4837994;29;20414;-62
2021/04/23 08:54:55;;;;;;;3.85;1.20;;;13.00;54.80;;;;;;4857424;29;20113;-62
2021/04/23 08:57:25;;;;;;;3.63;0.95;;;13.00;52.20;;;;;;4856680;29;20038;-62
2021/04/23 08:59:52;;;;;;;6.38;0.85;;;13.00;51.90;;;;;;4840679;29;20057;-63
2021/04/23 09:02:19;;;;;;;3.50;1.42;;;13.00;51.60;;;;;;4836007;29;20058;-62
2021/04/23 09:04:46;;;;;;;4.90;1.08;;;13.00;51.20;;;;;;4832137;29;20052;-62
2021/04/23 09:07:13;;;;;;;6.10;0.98;;;13.10;53.30;;;;;;4840009;29;20046;-62
2021/04/23 09:09:42;;;;;;;5.90;1.30;;;13.20;53.00;;;;;;4825330;29;20401;-62
2021/04/23 09:12:19;;;;;;;3.47;1.33;;;13.30;51.60;;;;;;4851598;29;20057;-62
2021/04/23 09:14:51;;;;;;;3.70;0.75;;;13.30;51.80;;;;;;4857101;29;20121;-62
2021/04/23 09:17:22;;;;;;;4.82;1.40;;;13.40;52.50;;;;;;4847534;29;20053;-62
2021/04/23 09:19:49;;;;;;;4.07;1.25;;;13.40;52.60;;;;;;4842150;29;20049;-62
2021/04/23 09:22:21;;;;;;;4.28;0.95;;;13.30;50.80;;;;;;4844637;29;20046;-62
2021/04/23 09:25:06;;;;;;;3.55;1.00;;;13.30;51.70;;;;;;4841374;29;20069;-62
2021/04/23 09:27:35;;;;;;;7.53;1.50;;;13.40;50.70;;;;;;4853351;29;20050;-62
2021/04/23 09:30:09;;;;;;;4.15;0.90;;;13.60;52.00;;;;;;4840099;29;20072;-62
2021/04/23 09:32:38;;;;;;;1.77;0.98;;;13.60;49.50;;;;;;4857753;29;20405;-62
2021/04/23 09:35:19;;;;;;;4.05;1.05;;;13.70;52.00;;;;;;4850634;29;20390;-62
2021/04/23 09:37:55;;;;;;;2.63;0.77;;;13.70;50.00;;;;;;4859125;29;20049;-62
2021/04/23 09:40:30;;;;;;;5.07;1.42;;;13.80;48.80;;;;;;4852539;29;20058;-62
2021/04/23 09:42:59;;;;;;;3.88;1.05;;;13.80;50.40;;;;;;4849109;29;20038;-62
2021/04/23 09:45:35;;;;;;;5.40;1.05;;;13.80;51.00;;;;;;4854159;29;20045;-62
2021/04/23 09:48:02;;;;;;;3.60;0.90;;;13.90;51.60;;;;;;4838216;29;20083;-62
2021/04/23 09:50:31;;;;;;;3.80;1.60;;;14.00;49.70;;;;;;4859269;29;20585;-62
2021/04/23 09:52:59;;;;;;;4.93;1.52;;;14.00;49.10;;;;;;4854158;29;20053;-62
2021/04/23 09:55:29;;;;;;;4.55;1.30;;;13.70;48.00;;;;;;4858655;29;20054;-62
2021/04/23 09:58:08;;;;;;;6.85;1.00;;;13.70;49.50;;;;;;4858795;29;20045;-62
2021/04/23 10:00:44;;;;;;;4.00;1.02;;;13.70;48.80;;;;;;4858830;29;20144;-62
2021/04/23 10:03:10;;;;;;;4.63;1.10;;;13.70;48.50;;;;;;4855125;29;20046;-62
2021/04/23 10:05:43;;;;;;;4.05;1.10;;;13.90;52.00;;;;;;4860033;29;20053;-62
2021/04/23 10:08:11;;;;;;;;;;;14.10;48.30;;;;;;4852500;29;20045;-62
2021/04/23 10:10:50;;;;;;;3.97;0.73;;;14.00;46.80;;;;;;4860859;29;19928;-62
2021/04/23 10:13:26;;;;;;;4.97;1.52;;;14.20;48.10;;;;;;4851973;29;20057;-62
2021/04/23 10:15:52;;;;;;;4.82;1.10;;;14.30;46.10;;;;;;4833245;29;20045;-62
2021/04/23 10:18:19;;;;;;;0.75;0.30;;;14.20;44.90;;;;;;4821779;29;20049;-62
2021/04/23 10:20:49;;;;;;;6.75;1.33;;;14.40;46.50;;;;;;4834203;29;20067;-62
2021/04/23 10:23:21;;;;;;;2.30;0.85;;;14.50;45.50;;;;;;4854392;29;20506;-62
2021/04/23 10:25:50;;;;;;;3.42;1.30;;;14.40;45.60;;;;;;4842132;29;20057;-62
2021/04/23 10:28:23;;;;;;;5.97;1.42;;;14.50;47.10;;;;;;4851381;29;20065;-62
2021/04/23 10:30:53;;;;;;;7.93;1.63;;;14.20;47.50;;;;;;4838023;29;20054;-62
2021/04/23 10:33:23;;;;;;;4.53;1.30;;;14.30;48.80;;;;;;4833084;29;20049;-61
2021/04/23 10:35:51;;;;;;;6.40;1.45;;;14.40;50.20;;;;;;4839972;29;20577;-62
2021/04/23 10:38:21;;;;;;;3.55;1.13;;;14.40;47.80;;;;;;4850325;29;20378;-62
2021/04/23 10:41:10;;;;;;;7.85;1.83;;;14.50;50.70;;;;;;4857051;29;20498;-62
2021/04/23 10:43:54;;;;;;;4.25;1.20;;;14.70;49.70;;;;;;4850915;29;20049;-62
2021/04/23 10:46:23;;;;;;;6.63;2.42;;;14.80;49.70;;;;;;4829182;29;20049;-62
2021/04/23 10:48:50;;;;;;;5.18;1.60;;;14.90;46.20;;;;;;4847181;29;20498;-62
2021/04/23 10:51:19;;;;;;;5.18;1.33;;;14.90;46.90;;;;;;4851457;29;20050;-62
2021/04/23 10:53:50;;;;;;;4.68;1.77;;;14.90;47.10;;;;;;4854021;29;20393;-62
2021/04/23 10:56:33;;;;;;;4.60;1.05;;;14.80;45.80;;;;;;4857325;29;20051;-62
2021/04/23 10:59:03;;;;;;;5.50;1.58;;;14.80;46.20;;;;;;4854555;29;20041;-62
2021/04/23 11:01:35;;;;;;;4.70;1.25;;;14.80;50.50;;;;;;4854212;29;20049;-62
2021/04/23 11:04:07;;;;;;;5.55;1.85;;;15.00;48.70;;;;;;4854593;29;20368;-62
2021/04/23 11:06:37;;;;;;;4.78;1.90;;;15.00;47.10;;;;;;4846803;29;20057;-62
2021/04/23 11:09:10;;;;;;;5.00;1.67;;;15.00;48.50;;;;;;4853991;29;20041;-62
2021/04/23 11:11:42;;;;;;;2.63;0.70;;;14.80;47.10;;;;;;4845875;29;20487;-62
2021/04/23 11:14:26;;;;;;;4.30;1.30;;;14.60;44.50;;;;;;4831203;29;20701;-61
2021/04/23 11:16:55;;;;;;;5.50;1.40;;;14.30;46.20;;;;;;4832807;29;20052;-62
2021/04/23 11:19:21;;;;;;;5.05;2.28;;;14.40;46.80;;;;;;4846555;29;20046;-62
2021/04/23 11:21:53;;;;;;;7.30;1.80;;;14.30;45.90;;;;;;4826746;29;20113;-61
2021/04/23 11:24:26;;;;;;;6.63;1.95;;;14.60;51.10;;;;;;4847847;29;20053;-62
2021/04/23 11:29:21;;;;;;;5.60;2.42;;;15.10;46.80;;;;;;4849621;29;20517;-62
2021/04/23 11:32:19;;;;;;;4.43;1.20;;;14.90;45.90;;;;;;4848445;29;20054;-62
2021/04/23 11:34:55;;;;;;;2.83;1.00;;;14.80;46.60;;;;;;4843983;29;20042;-62
2021/04/23 11:37:31;;;;;;;3.50;1.60;;;14.80;48.90;;;;;;4842001;29;20048;-62
2021/04/23 11:40:13;;;;;;;4.80;1.52;;;15.10;47.80;;;;;;4846254;29;20068;-61
2021/04/23 11:42:44;;;;;;;6.50;1.60;;;15.40;47.00;;;;;;4850044;29;20048;-62
2021/04/23 11:45:15;;;;;;;4.97;2.10;;;15.60;45.50;;;;;;4834264;29;20607;-62
2021/04/23 11:47:46;;;;;;;4.13;1.77;;;15.50;45.90;;;;;;4851276;29;20064;-62
2021/04/23 11:50:20;;;;;;;7.93;2.58;;;15.50;44.40;;;;;;4846614;29;20490;-62
2021/04/23 11:52:48;;;;;;;5.75;1.67;;;15.50;43.70;;;;;;4843904;29;20054;-62
2021/04/23 11:55:21;;;;;;;3.67;1.65;;;15.50;44.50;;;;;;4832163;29;21571;-63
2021/04/23 11:57:52;;;;;;;5.65;1.90;;;15.50;46.90;;;;;;4844867;29;20968;-62
2021/04/23 12:00:23;;;;;;;5.43;1.88;;;15.60;44.70;;;;;;4837985;29;20612;-63
2021/04/23 12:02:56;;;;;;;3.60;1.30;;;15.90;46.50;;;;;;4848537;29;20060;-62
2021/04/23 12:05:27;;;;;;;;;;;16.10;45.90;;;;;;4832694;29;20049;-62
2021/04/23 12:07:55;;;;;;;5.97;1.50;;;16.40;44.80;;;;;;4845925;29;19928;-63
2021/04/23 12:10:25;;;;;;;2.95;1.42;;;16.70;43.10;;;;;;4848759;29;20494;-63
2021/04/23 12:12:52;;;;;;;3.63;0.98;;;16.90;45.10;;;;;;4830929;29;20045;-63
2021/04/23 12:15:38;;;;;;;4.15;1.77;;;17.20;43.10;;;;;;4849599;29;20061;-63
2021/04/23 12:18:07;;;;;;;2.80;1.08;;;17.40;43.50;;;;;;4832652;29;20054;-63
2021/04/23 12:20:41;;;;;;;3.88;1.05;;;17.40;42.80;;;;;;4849915;29;20094;-62
2021/04/23 12:23:10;;;;;;;4.63;1.58;;;17.30;42.70;;;;;;4850198;29;20053;-62
2021/04/23 12:25:40;;;;;;;5.85;1.67;;;17.10;43.60;;;;;;4837326;29;20062;-62
2021/04/23 12:28:27;;;;;;;3.42;1.20;;;17.10;45.40;;;;;;4843530;29;20063;-61
2021/04/23 12:30:55;;;;;;;5.35;1.58;;;17.60;43.90;;;;;;4838923;29;20053;-61
2021/04/23 12:33:23;;;;;;;8.07;1.50;;;17.60;41.10;;;;;;4836819;29;20060;-62
2021/04/23 12:35:52;;;;;;;3.75;1.65;;;17.70;42.50;;;;;;4829568;29;20054;-62
2021/04/23 12:38:36;;;;;;;3.38;1.50;;;17.90;44.10;;;;;;4844353;29;20057;-62
2021/04/23 12:41:15;;;;;;;4.35;1.45;;;18.20;41.50;;;;;;4842051;29;20504;-61
2021/04/23 12:43:41;;;;;;;6.13;1.25;;;18.10;41.00;;;;;;4850004;29;20050;-62
2021/04/23 12:46:23;;;;;;;4.88;1.20;;;18.50;41.30;;;;;;4842164;29;20060;-62
2021/04/23 12:48:59;;;;;;;5.78;2.35;;;18.60;40.60;;;;;;4822587;29;20058;-61
2021/04/23 12:51:27;;;;;;;6.65;1.20;;;18.30;40.80;;;;;;4846311;29;20041;-61
2021/04/23 12:53:54;;;;;;;2.45;0.98;;;18.20;40.60;;;;;;4825690;29;20072;-62
2021/04/23 12:56:26;;;;;;;4.78;1.48;;;18.20;40.00;;;;;;4833743;29;20074;-62
2021/04/23 12:58:53;;;;;;;5.90;1.88;;;18.40;40.90;;;;;;4843266;29;20045;-62
2021/04/23 13:01:21;;;;;;;4.57;1.67;;;18.80;41.30;;;;;;4840637;29;20118;-62
2021/04/23 13:04:08;;;;;;;4.18;1.45;;;19.10;40.10;;;;;;4845887;29;20092;-62
2021/04/23 13:06:35;;;;;;;5.15;1.10;;;19.20;38.90;;;;;;4840354;29;20050;-62